Latest Weather Observations for Nullarbor

IDS60801

Issued at 12:01 am CST Sunday 24 July 2016 (issued every 30 minutes, with the page automatically refreshed every 10 minutes)

About weather observations | Map of weather stations | Latest weather observations for SA | Other Formats
Station Details ID: 018106 Name: NULLARBOR Lat: -31.45 Lon: 130.90 Height: 64.0 m
Data from the previous 72 hours. | See also: Recent months at Nullarbor
Date/Time
CST
Temp
°C
App
Temp
°C
Dew
Point
°C
Rel
Hum
%
Delta-T
°C
Wind Press
QNH
hPa
Press
MSL
hPa
Rain since
9am
mm
Dir  Spd
km/h
Gust
km/h
Spd
kts
Gust
kts
24/12:00am 6.3 1.8 2.2 75 1.7 NW 15 19 8 10 1017.8 1017.9 0.0
 
Date/Time
CST
Temp
°C
App
Temp
°C
Dew
Point
°C
Rel
Hum
%
Delta-T
°C
Wind Press
QNH
hPa
Press
MSL
hPa
Rain since
9am
mm
Dir  Spd
km/h
Gust
km/h
Spd
kts
Gust
kts
23/11:30pm 7.4 2.2 2.7 72 2.0 WNW 19 24 10 13 1018.1 1018.2 0.0
23/11:00pm 6.8 2.0 2.5 74 1.8 WNW 17 22 9 12 1018.3 1018.4 0.0
23/10:30pm 6.2 1.3 1.9 74 1.7 NW 17 20 9 11 1018.2 1018.3 0.0
23/10:00pm 6.8 1.9 1.9 71 2.0 NW 17 20 9 11 1018.4 1018.5 0.0
23/09:30pm 7.4 2.5 1.9 68 2.3 NW 17 20 9 11 1018.3 1018.4 0.0
23/09:00pm 8.3 3.0 1.9 64 2.6 NW 19 24 10 13 1018.3 1018.4 0.0
23/08:30pm 8.5 3.7 2.5 66 2.5 NW 17 20 9 11 1018.2 1018.3 0.0
23/08:00pm 8.6 3.9 3.2 69 2.3 NNW 17 22 9 12 1018.0 1018.1 0.0
23/07:30pm 8.2 3.9 3.3 71 2.1 NNW 15 17 8 9 1017.7 1017.8 0.0
23/07:00pm 9.1 4.8 3.5 68 2.4 NNW 15 17 8 9 1017.5 1017.6 0.0
23/06:30pm 10.5 6.7 4.0 64 2.9 NW 13 15 7 8 1017.5 1017.6 0.0
23/06:00pm 11.9 7.8 4.2 59 3.5 WNW 15 19 8 10 1017.3 1017.4 0.0
23/05:30pm 13.3 8.3 3.7 52 4.3 WNW 19 24 10 13 1017.2 1017.3 0.0
23/05:00pm 14.3 9.1 3.7 49 4.8 WNW 20 28 11 15 1017.4 1017.5 0.0
23/04:30pm 14.4 9.4 4.4 51 4.6 WNW 20 28 11 15 1017.6 1017.7 0.0
23/04:00pm 14.3 8.5 4.6 52 4.5 NW 24 32 13 17 1017.6 1017.7 0.0
23/03:30pm 14.2 8.6 5.3 55 4.2 NW 24 33 13 18 1017.8 1017.9 0.0
23/03:00pm 14.9 9.4 5.7 54 4.4 WNW 24 32 13 17 1017.6 1017.7 0.0
23/02:30pm 14.5 9.1 6.3 58 3.9 WNW 24 33 13 18 1018.3 1018.4 0.0
23/02:00pm 14.2 8.5 6.6 60 3.7 WNW 26 32 14 17 1018.3 1018.4 0.0
23/01:30pm 13.9 9.5 7.2 64 3.3 WNW 20 28 11 15 1018.7 1018.8 0.0
23/01:00pm 12.9 8.2 7.6 70 2.6 WNW 22 30 12 16 1019.1 1019.2 0.0
23/12:36pm 12.4 7.9 8.5 77 1.9 WNW 22 30 12 16 1019.6 1019.7 0.0
23/12:30pm 12.9 8.8 8.0 72 2.4 WNW 19 28 10 15 1019.7 1019.8 0.0
23/12:25pm 12.6 8.4 8.3 75 2.1 WNW 20 26 11 14 1019.9 1020.0 0.0
23/12:00pm 13.5 9.1 8.8 73 2.4 NW 22 28 12 15 1020.5 1020.6 0.0
23/11:30am 12.4 8.9 8.9 79 1.8 NW 17 26 9 14 1020.8 1020.9 0.0
23/11:00am 10.8 8.2 9.2 90 0.8 WNW 13 20 7 11 1021.1 1021.2 0.0
23/10:39am 10.3 6.3 9.1 92 0.6 W 20 26 11 14 1021.5 1021.6 0.0
23/10:30am 10.7 7.4 9.5 92 0.6 WNW 17 24 9 13 1021.5 1021.6 0.0
23/10:00am 9.8 6.4 9.0 95 0.4 WNW 17 20 9 11 1021.2 1021.3 0.0
23/09:30am 7.9 4.2 7.8 99 0.0 NW 17 22 9 12 1021.2 1021.3 0.0
23/09:00am 7.2 4.1 7.2 100 0.0 WNW 13 22 7 12 1020.8 1020.9 1.4
23/08:30am 6.2 2.1 6.1 99 0.0 NW 17 20 9 11 1020.4 1020.5 1.4
23/08:00am 6.0 1.5 6.0 100 0.0 WNW 19 26 10 14 1020.2 1020.3 1.4
23/07:30am 5.4 1.5 5.3 99 0.0 NW 15 19 8 10 1019.8 1019.9 1.4
23/07:00am 5.7 1.9 5.6 99 0.0 WNW 15 20 8 11 1019.2 1019.3 1.4
23/06:30am 6.2 2.1 6.1 99 0.0 WNW 17 22 9 12 1019.0 1019.1 1.4
23/06:04am 6.6 2.6 6.5 99 0.0 WNW 17 24 9 13 1019.2 1019.3 1.4
23/06:00am 6.5 2.8 6.4 99 0.0 WNW 15 20 8 11 1019.1 1019.2 1.4
23/05:30am 6.1 1.4 6.0 99 0.0 WNW 20 26 11 14 1018.7 1018.8 1.4
23/05:00am 6.3 2.6 6.2 99 0.0 NW 15 20 8 11 1018.8 1018.9 1.2
23/04:30am 6.2 2.5 6.1 99 0.0 WNW 15 19 8 10 1019.0 1019.1 1.2
23/04:00am 6.7 3.0 6.4 98 0.1 WNW 15 20 8 11 1018.8 1018.9 1.2
23/03:30am 7.5 3.0 6.8 95 0.3 W 20 26 11 14 1018.8 1018.9 1.2
23/03:00am 7.9 2.6 7.0 94 0.4 W 24 30 13 16 1018.7 1018.8 1.2
23/02:30am 7.0 2.4 6.7 98 0.1 WNW 20 24 11 13 1019.1 1019.2 1.2
23/02:00am 7.1 2.5 6.7 97 0.2 WNW 20 24 11 13 1019.1 1019.2 1.2
23/01:30am 7.5 3.0 7.1 97 0.2 WNW 20 26 11 14 1019.4 1019.5 1.2
23/01:03am 7.9 3.5 7.6 98 0.1 WNW 20 28 11 15 1019.3 1019.4 1.2
23/01:00am 8.0 3.7 7.7 98 0.1 WNW 20 28 11 15 1019.3 1019.4 1.2
23/12:47am 8.1 3.0 7.7 97 0.2 WNW 24 33 13 18 1019.4 1019.5 1.2
23/12:30am 8.3 3.5 7.5 95 0.4 WNW 22 30 12 16 1019.3 1019.4 1.2
23/12:27am 8.3 3.5 7.5 95 0.4 WNW 22 33 12 18 1019.3 1019.4 1.2
23/12:03am 8.8 3.6 7.4 91 0.7 WNW 24 33 13 18 1019.7 1019.8 1.0
23/12:00am 8.9 4.1 7.2 89 0.8 WNW 22 33 12 18 1019.6 1019.7 1.0
 
Date/Time
CST
Temp
°C
App
Temp
°C
Dew
Point
°C
Rel
Hum
%
Delta-T
°C
Wind Press
QNH
hPa
Press
MSL
hPa
Rain since
9am
mm
Dir  Spd
km/h
Gust
km/h
Spd
kts
Gust
kts
22/11:39pm 9.0 4.6 7.3 89 0.8 WNW 20 26 11 14 1019.6 1019.7 0.8
22/11:30pm 9.1 3.9 7.1 87 0.9 WNW 24 30 13 16 1019.4 1019.5 0.8
22/11:00pm 9.0 3.4 7.3 89 0.8 WNW 26 33 14 18 1019.2 1019.3 0.8
22/10:30pm 9.2 4.5 7.8 91 0.7 WNW 22 32 12 17 1019.1 1019.2 0.8
22/10:00pm 9.1 4.0 7.5 90 0.8 WNW 24 32 13 17 1019.0 1019.1 0.8
22/09:30pm 9.1 4.5 8.0 93 0.5 WNW 22 28 12 15 1019.0 1019.1 0.8
22/09:12pm 9.4 4.5 8.5 94 0.4 WNW 24 35 13 19 1018.8 1018.9 0.8
22/09:00pm 9.3 3.2 8.4 94 0.4 WNW 30 44 16 24 1018.8 1018.9 0.8
22/08:54pm 9.5 3.7 7.9 90 0.8 WNW 28 43 15 23 1018.8 1018.9 0.6
22/08:30pm 9.6 4.9 7.9 89 0.8 WNW 22 28 12 15 1018.5 1018.6 0.6
22/08:00pm 9.7 4.8 8.3 91 0.7 W 24 33 13 18 1018.2 1018.3 0.6
22/07:59pm 9.7 4.8 8.3 91 0.7 W 24 33 13 18 1018.2 1018.3 0.6
22/07:30pm 10.0 5.8 8.4 90 0.8 W 20 28 11 15 1017.9 1018.0 0.4
22/07:29pm 10.0 5.8 8.4 90 0.8 W 20 28 11 15 1017.9 1018.0 0.4
22/07:00pm 10.1 5.3 8.9 92 0.6 W 24 35 13 19 1017.3 1017.4 0.2
22/06:57pm 9.9 4.7 8.8 93 0.5 W 26 37 14 20 1017.2 1017.3 0.2
22/06:39pm 9.9 2.9 8.5 91 0.7 W 35 54 19 29 1017.1 1017.2 0.2
22/06:38pm 9.9 3.3 8.7 92 0.6 W 33 48 18 26 1017.1 1017.2 0.2
22/06:36pm 10.0 3.7 8.9 93 0.5 W 32 48 17 26 1017.1 1017.2 0.0
22/06:30pm 10.0 4.0 8.8 92 0.6 W 30 39 16 21 1017.0 1017.1 0.0
22/06:24pm 9.9 3.5 8.7 92 0.6 W 32 50 17 27 1016.8 1016.9 0.0
22/06:15pm 10.4 3.7 8.0 85 1.2 W 33 50 18 27 1016.7 1016.8 0.0
22/06:00pm 11.9 4.6 5.5 65 3.0 W 33 46 18 25 1016.2 1016.3 0.0
22/05:30pm 12.4 4.4 5.8 64 3.1 W 37 52 20 28 1015.8 1015.8 0.0
22/05:00pm 13.4 3.9 5.1 57 3.9 WSW 44 69 24 37 1015.4 1015.4 0.0
22/04:38pm 13.9 4.5 5.3 56 4.0 WSW 44 63 24 34 1015.3 1015.3 0.0
22/04:30pm 14.0 3.7 4.9 54 4.2 W 48 65 26 35 1015.1 1015.1 0.0
22/04:01pm 14.0 4.5 4.9 54 4.2 WSW 44 63 24 34 1014.8 1014.8 0.0
22/04:00pm 14.0 4.1 4.9 54 4.2 WSW 46 63 25 34 1014.8 1014.8 0.0
22/03:35pm 14.4 5.2 5.5 55 4.2 WSW 43 61 23 33 1014.6 1014.6 0.0
22/03:30pm 14.4 4.6 5.5 55 4.2 WSW 46 63 25 34 1014.4 1014.4 0.0
22/03:00pm 14.6 4.5 5.7 55 4.2 WSW 48 67 26 36 1014.0 1014.0 0.0
22/02:30pm 14.5 3.8 4.5 51 4.6 WSW 50 69 27 37 1013.6 1013.6 0.0
22/02:00pm 15.2 4.1 4.3 48 5.1 W 52 70 28 38 1013.5 1013.5 0.0
22/01:30pm 15.0 4.3 4.7 50 4.8 WSW 50 74 27 40 1013.2 1013.2 0.0
22/01:00pm 15.1 4.4 4.8 50 4.8 W 50 69 27 37 1013.2 1013.2 0.0
22/12:30pm 15.9 5.5 4.0 45 5.5 W 48 69 26 37 1013.0 1013.0 0.0
22/12:01pm 15.0 4.7 4.7 50 4.8 WNW 48 67 26 36 1013.0 1013.0 0.0
22/12:00pm 15.0 4.3 4.7 50 4.8 WNW 50 67 27 36 1012.9 1012.9 0.0
22/11:47am 15.1 5.2 5.0 51 4.8 WNW 46 65 25 35 1013.0 1013.0 0.0
22/11:30am 14.6 4.0 4.9 52 4.5 WNW 50 65 27 35 1012.8 1012.8 0.0
22/11:02am 14.8 5.4 5.6 54 4.4 WNW 44 63 24 34 1012.7 1012.7 0.0
22/11:00am 14.5 4.7 5.3 54 4.3 WNW 46 63 25 34 1012.6 1012.6 0.0
22/10:32am 14.0 3.1 5.4 56 4.1 W 52 70 28 38 1012.3 1012.3 0.0
22/10:30am 14.0 2.6 5.1 55 4.2 W 54 70 29 38 1012.4 1012.4 0.0
22/10:00am 14.0 4.7 6.1 59 3.8 WNW 44 65 24 35 1012.2 1012.2 0.0
22/09:30am 12.8 4.4 5.5 61 3.4 WNW 39 57 21 31 1012.0 1012.0 0.0
22/09:29am 12.8 4.4 5.5 61 3.4 WNW 39 57 21 31 1012.1 1012.1 0.0
22/09:00am 13.1 6.2 7.1 67 2.9 WNW 33 46 18 25 1011.8 1011.8 0.0
22/08:30am 12.5 6.9 7.2 70 2.6 WNW 26 35 14 19 1011.2 1011.2 0.0
22/08:00am 12.8 5.8 6.8 67 2.9 WNW 33 43 18 23 1011.1 1011.1 0.0
22/07:48am 13.0 6.9 6.8 66 3.0 WNW 28 50 15 27 1010.8 1010.8 0.0
22/07:30am 13.1 6.3 6.9 66 3.0 WNW 32 46 17 25 1010.7 1010.7 0.0
22/07:00am 13.7 7.4 7.2 65 3.2 W 30 41 16 22 1010.3 1010.3 0.0
22/06:30am 14.1 7.8 7.4 64 3.3 WNW 30 37 16 20 1010.1 1010.1 0.0
22/06:00am 14.4 8.4 7.2 62 3.5 WNW 28 39 15 21 1009.8 1009.8 0.0
22/05:30am 14.6 8.6 7.2 61 3.6 WNW 28 39 15 21 1009.3 1009.3 0.0
22/05:00am 14.3 9.1 7.4 63 3.4 WNW 24 32 13 17 1009.0 1009.0 0.0
22/04:30am 13.3 9.6 8.0 70 2.6 NW 17 24 9 13 1009.5 1009.5 0.0
22/04:00am 13.7 10.4 7.9 68 2.9 NW 15 20 8 11 1009.5 1009.5 0.0
22/03:30am 14.3 9.9 7.6 64 3.3 NW 20 28 11 15 1009.5 1009.5 0.0
22/03:00am 14.2 10.1 7.7 65 3.2 NW 19 24 10 13 1009.1 1009.1 0.0
22/02:30am 13.5 9.9 8.4 71 2.6 NW 17 24 9 13 1009.6 1009.6 0.0
22/02:00am 13.6 10.5 8.7 72 2.5 WNW 15 19 8 10 1009.9 1009.9 0.0
22/01:30am 13.9 10.4 8.9 72 2.5 WNW 17 20 9 11 1009.6 1009.6 0.0
22/01:00am 13.9 10.6 9.7 76 2.2 WNW 17 20 9 11 1010.0 1010.0 0.0
22/12:30am 14.0 10.8 10.0 77 2.1 WNW 17 19 9 10 1009.8 1009.8 0.0
22/12:00am 14.3 11.3 10.5 78 2.0 NW 17 20 9 11 1010.1 1010.1 0.0
 
Date/Time
CST
Temp
°C
App
Temp
°C
Dew
Point
°C
Rel
Hum
%
Delta-T
°C
Wind Press
QNH
hPa
Press
MSL
hPa
Rain since
9am
mm
Dir  Spd
km/h
Gust
km/h
Spd
kts
Gust
kts
21/11:30pm 14.5 11.7 11.3 81 1.7 WNW 17 20 9 11 1010.0 1010.0 0.0
21/11:00pm 14.7 12.0 11.8 83 1.6 NW 17 22 9 12 1010.5 1010.5 0.0
21/10:30pm 14.2 12.6 12.8 91 0.8 NW 13 17 7 9 1010.5 1010.5 0.0
21/10:00pm 14.4 13.2 12.8 90 0.9 NW 11 13 6 7 1010.4 1010.4 0.0
21/09:30pm 15.0 13.5 13.0 88 1.1 W 13 19 7 10 1010.6 1010.6 0.0
21/09:00pm 15.2 12.5 12.9 86 1.3 WSW 19 24 10 13 1010.5 1010.5 0.0
21/08:30pm 14.7 12.8 12.9 89 1.0 SW 15 20 8 11 1010.1 1010.1 0.0
21/08:00pm 14.6 13.0 12.8 89 1.0 WSW 13 17 7 9 1009.6 1009.6 0.0
21/07:30pm 15.0 13.4 12.7 86 1.3 WSW 13 15 7 8 1008.8 1008.8 0.0
21/07:00pm 15.4 13.7 12.5 83 1.6 SW 13 17 7 9 1008.4 1008.4 0.0
21/06:30pm 15.8 14.4 12.2 79 2.0 SW 11 15 6 8 1008.2 1008.2 0.0
21/06:00pm 17.1 14.9 12.0 72 2.8 SW 15 20 8 11 1008.1 1008.1 0.0
21/05:30pm 20.7 17.4 10.8 53 5.4 W 19 22 10 12 1007.7 1007.7 0.0
21/05:00pm 22.2 17.8 10.4 47 6.5 WNW 24 32 13 17 1007.5 1007.5 0.0
21/04:30pm 22.8 18.4 10.3 45 6.9 WNW 24 33 13 18 1007.2 1007.2 0.0
21/04:00pm 23.3 19.5 9.7 42 7.4 WNW 20 30 11 16 1007.1 1007.1 0.0
21/03:30pm 23.4 19.4 10.5 44 7.2 WNW 22 30 12 16 1007.0 1007.0 0.0
21/03:00pm 23.7 19.1 9.7 41 7.7 WNW 24 35 13 19 1007.3 1007.3 0.0
21/02:30pm 23.5 18.4 9.1 40 7.8 WNW 26 32 14 17 1007.4 1007.4 0.0
21/02:00pm 23.7 18.1 8.6 38 8.1 NW 28 37 15 20 1007.5 1007.5 0.0
21/01:30pm 23.8 19.0 9.0 39 8.0 NW 24 32 13 17 1007.9 1007.9 0.0
21/01:00pm 23.0 16.6 8.7 40 7.6 NW 32 39 17 21 1008.7 1008.7 0.0
21/12:30pm 23.3 18.5 10.4 44 7.1 NW 26 35 14 19 1009.3 1009.3 0.0
21/12:00pm 22.6 17.8 10.4 46 6.7 NW 26 39 14 21 1009.8 1009.8 0.0
21/11:30am 22.2 17.2 9.7 45 6.8 NW 26 37 14 20 1010.0 1010.0 0.0
21/11:00am 21.5 15.8 9.7 47 6.4 NW 30 41 16 22 1009.9 1009.9 0.0
21/10:30am 20.8 15.2 10.3 51 5.7 NNW 30 41 16 22 1010.3 1010.3 0.0
21/10:00am 19.6 14.0 10.0 54 5.2 NNW 30 43 16 23 1010.4 1010.4 0.0
21/09:30am 18.2 13.0 10.1 59 4.3 N 28 37 15 20 1009.9 1009.9 0.0
21/09:00am 16.1 11.2 9.8 66 3.3 N 26 33 14 18 1010.0 1010.0 0.0
21/08:30am 14.2 10.1 10.0 76 2.2 N 22 28 12 15 1010.0 1010.0 0.0
21/08:00am 13.8 9.7 10.0 78 2.0 N 22 28 12 15 1009.9 1009.9 0.0
21/07:30am 13.6 9.5 10.2 80 1.8 N 22 28 12 15 1010.0 1010.0 0.0
21/07:00am 13.6 9.2 10.4 81 1.7 N 24 30 13 16 1009.9 1009.9 0.0
21/06:30am 13.7 9.4 10.7 82 1.6 N 24 30 13 16 1009.8 1009.8 0.0
21/06:00am 13.0 9.1 10.9 87 1.1 N 22 26 12 14 1009.9 1009.9 0.0
21/05:30am 12.7 9.5 11.8 94 0.5 NNE 20 24 11 13 1010.1 1010.1 0.0
21/05:00am 11.8 8.7 11.6 99 0.1 NNE 19 22 10 12 1010.4 1010.4 0.0
21/04:30am 11.7 8.6 11.5 99 0.1 NNE 19 22 10 12 1010.7 1010.7 0.0
21/04:00am 11.9 8.8 11.7 99 0.1 NNE 19 22 10 12 1011.0 1011.0 0.0
21/03:30am 12.1 9.1 12.1 100 0.0 NNE 19 22 10 12 1011.3 1011.3 0.0
21/03:00am 12.3 9.4 12.3 100 0.0 NNE 19 22 10 12 1011.6 1011.6 0.0
21/02:30am 12.5 10.1 12.5 100 0.0 NE 17 20 9 11 1012.0 1012.0 0.0
21/02:00am 13.1 10.8 13.1 100 0.0 NE 17 20 9 11 1012.5 1012.5 0.0
21/01:30am 13.1 10.8 13.1 100 0.0 NE 17 20 9 11 1012.8 1012.8 0.0
21/01:00am 12.7 10.3 12.7 100 0.0 NE 17 19 9 10 1013.3 1013.3 0.0
21/12:30am 12.7 10.3 12.7 100 0.0 NE 17 19 9 10 1013.9 1013.9 0.0

Other Formats:

Comma delimited format used in spreadsheet applications
http://www.bom.gov.au/fwo/IDS60801/IDS60801.94651.axf

JavaScript Object Notation format (JSON) in row-major order
http://www.bom.gov.au/fwo/IDS60801/IDS60801.94651.json